createdAt,value
2022-11-03T00:01:56.766Z,5.25
2022-11-03T00:04:23.993Z,5.23
2022-11-03T00:06:54.558Z,5.08
2022-11-03T00:09:23.633Z,5.10
2022-11-03T00:11:51.923Z,4.94
2022-11-03T00:14:18.987Z,4.93
2022-11-03T00:16:45.793Z,5.00
2022-11-03T00:19:13.650Z,5.00
2022-11-03T00:21:40.299Z,5.00
2022-11-03T00:24:07.388Z,4.99
2022-11-03T00:26:36.732Z,4.95
2022-11-03T00:29:12.801Z,4.95
2022-11-03T00:31:43.638Z,4.92
2022-11-03T00:34:11.284Z,5.01
2022-11-03T00:36:41.635Z,4.96
2022-11-03T00:39:08.824Z,5.00
2022-11-03T00:41:36.427Z,5.06
2022-11-03T00:44:03.609Z,4.99
2022-11-03T00:46:30.462Z,4.86
2022-11-03T00:48:57.065Z,4.90
2022-11-03T00:51:27.361Z,4.92
2022-11-03T00:53:56.906Z,4.88
2022-11-03T00:56:36.989Z,4.89
2022-11-03T00:59:05.566Z,4.91
2022-11-03T01:01:46.557Z,4.92
2022-11-03T01:04:34.824Z,4.94
2022-11-03T01:07:02.830Z,4.91
2022-11-03T01:09:33.095Z,4.93
2022-11-03T01:12:08.703Z,4.89
2022-11-03T01:14:43.873Z,4.88
2022-11-03T01:17:25.843Z,4.92
2022-11-03T01:19:53.601Z,4.92
2022-11-03T01:22:22.266Z,4.90
2022-11-03T01:24:48.876Z,4.88
2022-11-03T01:27:19.253Z,4.81
2022-11-03T01:29:46.317Z,4.84
2022-11-03T01:32:12.793Z,4.85
2022-11-03T01:34:39.769Z,4.81
2022-11-03T01:37:06.695Z,4.72
2022-11-03T01:39:33.657Z,4.64
2022-11-03T01:42:00.461Z,4.67
2022-11-03T01:44:48.243Z,4.71
2022-11-03T01:47:32.958Z,4.56
2022-11-03T01:50:14.416Z,4.48
2022-11-03T01:52:46.708Z,4.41
2022-11-03T01:55:24.488Z,4.30
2022-11-03T01:58:02.491Z,4.32
2022-11-03T02:00:28.989Z,4.42
2022-11-03T02:02:55.506Z,4.50
2022-11-03T02:05:26.567Z,4.60
2022-11-03T02:08:02.183Z,4.68
2022-11-03T02:10:28.673Z,4.64
2022-11-03T02:12:55.374Z,4.59
2022-11-03T02:15:23.857Z,4.58
2022-11-03T02:17:53.993Z,4.73
2022-11-03T02:20:32.898Z,4.74
2022-11-03T02:23:14.350Z,4.81
2022-11-03T02:25:57.910Z,4.85
2022-11-03T02:28:32.310Z,4.91
2022-11-03T02:31:23.612Z,4.90
2022-11-03T02:34:08.213Z,4.84
2022-11-03T02:36:51.237Z,4.82
2022-11-03T02:39:38.609Z,4.71
2022-11-03T02:42:07.545Z,4.70
2022-11-03T02:44:36.819Z,4.70
2022-11-03T02:47:11.169Z,4.60
2022-11-03T02:49:53.300Z,4.47
2022-11-03T02:52:47.247Z,4.42
2022-11-03T02:55:41.130Z,4.46
2022-11-03T02:58:59.261Z,4.50
2022-11-03T03:01:46.994Z,4.52
2022-11-03T03:04:39.484Z,4.51
2022-11-03T03:07:14.064Z,4.45
2022-11-03T03:09:51.349Z,4.40
2022-11-03T03:12:21.846Z,4.42
2022-11-03T03:14:50.917Z,4.44
2022-11-03T03:17:33.980Z,4.45
2022-11-03T03:20:31.260Z,4.39
2022-11-03T03:23:14.039Z,4.29
2022-11-03T03:25:58.073Z,4.17
2022-11-03T03:28:43.189Z,4.14
2022-11-03T03:31:14.517Z,4.30
2022-11-03T03:33:47.542Z,4.36
2022-11-03T03:36:18.929Z,4.27
2022-11-03T03:39:02.548Z,4.13
2022-11-03T03:41:32.622Z,4.16
2022-11-03T03:44:05.574Z,4.16
2022-11-03T03:46:40.956Z,4.06
2022-11-03T03:49:08.337Z,3.92
2022-11-03T03:51:36.638Z,4.01
2022-11-03T03:54:03.357Z,4.06
2022-11-03T03:56:38.995Z,4.20
2022-11-03T03:59:05.472Z,4.29
2022-11-03T04:01:32.020Z,4.36
2022-11-03T04:03:58.528Z,4.42
2022-11-03T04:06:24.984Z,4.53
2022-11-03T04:08:51.409Z,4.59
2022-11-03T04:11:36.373Z,4.53
2022-11-03T04:14:21.580Z,4.45
2022-11-03T04:17:07.012Z,4.48
2022-11-03T04:19:52.086Z,4.51
2022-11-03T04:22:18.634Z,4.60
2022-11-03T04:24:51.561Z,4.64
2022-11-03T04:27:35.025Z,4.67
2022-11-03T04:30:22.044Z,4.67
2022-11-03T04:32:51.465Z,4.68
2022-11-03T04:35:25.864Z,4.63
2022-11-03T04:38:09.704Z,4.65
2022-11-03T04:40:36.282Z,4.65
2022-11-03T04:43:10.965Z,4.49
2022-11-03T04:45:38.225Z,4.46
2022-11-03T04:48:14.636Z,4.36
2022-11-03T04:50:46.594Z,4.33
2022-11-03T04:53:16.869Z,4.35
2022-11-03T04:55:45.909Z,4.39
2022-11-03T04:58:43.047Z,4.48
2022-11-03T05:01:17.277Z,4.36
2022-11-03T05:03:54.142Z,4.22
2022-11-03T05:06:29.542Z,4.29
2022-11-03T05:09:01.943Z,4.33
2022-11-03T05:11:41.328Z,4.38
2022-11-03T05:14:19.969Z,4.35
2022-11-03T05:16:48.677Z,4.28
2022-11-03T05:19:28.813Z,4.31
2022-11-03T05:21:58.996Z,4.25
2022-11-03T05:24:26.414Z,4.38
2022-11-03T05:26:57.721Z,4.43
2022-11-03T05:29:35.451Z,4.32
2022-11-03T05:32:02.050Z,4.25
2022-11-03T05:34:41.185Z,4.16
2022-11-03T05:37:27.072Z,4.10
2022-11-03T05:39:59.410Z,4.03
2022-11-03T05:42:37.766Z,3.96
2022-11-03T05:45:26.677Z,3.87
2022-11-03T05:47:56.997Z,3.96
2022-11-03T05:50:27.233Z,4.09
2022-11-03T05:53:06.436Z,4.14
2022-11-03T05:55:37.280Z,4.19
2022-11-03T05:58:27.492Z,4.16
2022-11-03T06:00:55.186Z,4.29
2022-11-03T06:03:27.772Z,4.32
2022-11-03T06:05:56.907Z,4.25
2022-11-03T06:08:30.573Z,4.25
2022-11-03T06:10:59.944Z,4.32
2022-11-03T06:13:38.245Z,4.33
2022-11-03T06:16:36.125Z,4.44
2022-11-03T06:19:18.809Z,4.50
2022-11-03T06:21:46.760Z,4.38
2022-11-03T06:24:16.817Z,4.35
2022-11-03T06:26:46.628Z,4.33
2022-11-03T06:29:19.845Z,4.32
2022-11-03T06:31:53.018Z,4.34
2022-11-03T06:34:25.347Z,4.33
2022-11-03T06:36:51.834Z,4.36
2022-11-03T06:39:24.241Z,4.22
2022-11-03T06:41:51.590Z,4.34
2022-11-03T06:44:29.027Z,4.42
2022-11-03T06:47:01.620Z,4.52
2022-11-03T06:49:34.569Z,4.55
2022-11-03T06:52:31.420Z,4.59
2022-11-03T06:55:18.770Z,4.54
2022-11-03T06:57:50.208Z,4.64
2022-11-03T07:00:34.577Z,4.68
2022-11-03T07:03:13.923Z,4.72
2022-11-03T07:05:40.893Z,4.83
2022-11-03T07:08:23.734Z,4.90
2022-11-03T07:11:01.019Z,4.99
2022-11-03T07:13:32.494Z,5.14
2022-11-03T07:15:59.303Z,5.24
2022-11-03T07:18:33.978Z,5.32
2022-11-03T07:21:15.822Z,5.39
2022-11-03T07:23:44.758Z,5.29
2022-11-03T07:26:13.701Z,5.35
2022-11-03T07:28:40.233Z,5.34
2022-11-03T07:31:38.650Z,5.47
2022-11-03T07:34:12.965Z,5.56
2022-11-03T07:36:39.475Z,5.59
2022-11-03T07:39:12.397Z,5.58
2022-11-03T07:41:38.884Z,5.72
2022-11-03T07:44:13.876Z,5.78
2022-11-03T07:46:40.372Z,5.80
2022-11-03T07:49:29.996Z,5.86
2022-11-03T07:51:59.434Z,5.88
2022-11-03T07:54:32.356Z,5.81
2022-11-03T07:57:06.008Z,5.55
2022-11-03T07:59:42.599Z,5.57
2022-11-03T08:02:31.612Z,5.68
2022-11-03T08:04:59.300Z,5.67
2022-11-03T08:07:26.067Z,5.81
2022-11-03T08:09:52.607Z,5.89
2022-11-03T08:12:19.549Z,5.99
2022-11-03T08:14:46.340Z,6.09
2022-11-03T08:17:14.435Z,6.14
2022-11-03T08:19:41.497Z,6.19
2022-11-03T08:22:07.986Z,6.18
2022-11-03T08:24:34.445Z,6.22
2022-11-03T08:27:00.933Z,6.33
2022-11-03T08:29:27.393Z,6.42
2022-11-03T08:31:55.264Z,6.60
2022-11-03T08:34:21.936Z,6.73
2022-11-03T08:36:48.393Z,6.81
2022-11-03T08:39:14.868Z,6.97
2022-11-03T08:41:41.370Z,7.05
2022-11-03T08:44:07.956Z,7.19
2022-11-03T08:46:35.163Z,7.39
2022-11-03T08:49:01.669Z,7.57
2022-11-03T08:51:28.159Z,7.79
2022-11-03T08:53:55.081Z,7.97
2022-11-03T08:56:22.516Z,8.18
2022-11-03T08:58:49.734Z,8.36
2022-11-03T09:01:16.335Z,8.48
2022-11-03T09:03:43.331Z,8.60
2022-11-03T09:06:10.438Z,8.80
2022-11-03T09:11:23.603Z,9.11
2022-11-03T09:13:50.043Z,9.36
2022-11-03T09:16:17.059Z,9.61
2022-11-03T09:18:43.759Z,9.77
2022-11-03T09:21:10.213Z,9.90
2022-11-03T09:23:36.676Z,10.11
2022-11-03T09:26:03.177Z,10.22
2022-11-03T09:28:29.605Z,10.26
2022-11-03T09:30:56.089Z,10.24
2022-11-03T09:33:22.560Z,10.33
2022-11-03T09:35:49.084Z,10.43
2022-11-03T09:38:15.525Z,10.46
2022-11-03T09:40:42.068Z,10.54
2022-11-03T09:43:09.148Z,10.54
2022-11-03T09:45:35.900Z,10.62
2022-11-03T09:48:02.457Z,10.75
2022-11-03T09:50:28.966Z,10.88
2022-11-03T09:52:57.379Z,10.94
2022-11-03T09:55:26.913Z,10.99
2022-11-03T09:58:00.617Z,10.93
2022-11-03T10:00:27.333Z,11.00
2022-11-03T10:02:55.607Z,11.12
2022-11-03T10:05:31.273Z,11.15
2022-11-03T10:08:03.203Z,11.21
2022-11-03T10:10:31.582Z,11.39
2022-11-03T10:13:00.933Z,11.46
2022-11-03T10:15:28.034Z,11.67
2022-11-03T10:17:55.744Z,11.80
2022-11-03T10:20:23.103Z,11.89
2022-11-03T10:22:55.100Z,11.92
2022-11-03T10:25:38.239Z,11.97
2022-11-03T10:28:22.305Z,11.98
2022-11-03T10:31:19.879Z,12.05
2022-11-03T10:33:54.714Z,11.82
2022-11-03T10:36:30.134Z,12.01
2022-11-03T10:38:57.588Z,12.14
2022-11-03T10:41:28.581Z,12.05
2022-11-03T10:44:19.623Z,12.11
2022-11-03T10:47:01.533Z,12.15
2022-11-03T10:49:34.659Z,12.33
2022-11-03T10:52:29.791Z,12.38
2022-11-03T10:54:59.248Z,12.52
2022-11-03T10:57:27.677Z,12.62
2022-11-03T10:59:55.378Z,12.68
2022-11-03T11:02:28.511Z,12.76
2022-11-03T11:05:01.526Z,12.75
2022-11-03T11:07:39.975Z,12.84
2022-11-03T11:10:31.290Z,12.92
2022-11-03T11:13:17.876Z,12.90
2022-11-03T11:15:46.758Z,12.93
2022-11-03T11:18:39.150Z,12.90
2022-11-03T11:21:40.828Z,12.92
2022-11-03T11:24:11.478Z,13.00
2022-11-03T11:26:39.556Z,13.07
2022-11-03T11:29:08.833Z,13.07
2022-11-03T11:31:43.031Z,13.07
2022-11-03T11:34:09.596Z,13.09
2022-11-03T11:36:38.741Z,13.17
2022-11-03T11:39:24.773Z,13.21
2022-11-03T11:42:19.347Z,13.20
2022-11-03T11:44:54.995Z,13.32
2022-11-03T11:47:49.413Z,13.30
2022-11-03T11:50:36.405Z,13.30
2022-11-03T11:53:10.951Z,13.09
2022-11-03T11:55:50.833Z,13.24
2022-11-03T11:58:29.216Z,13.26
2022-11-03T12:01:00.356Z,13.39
2022-11-03T12:03:34.820Z,13.46
2022-11-03T12:06:01.954Z,13.41
2022-11-03T12:08:31.678Z,13.37
2022-11-03T12:11:04.507Z,13.41
2022-11-03T12:13:51.089Z,13.43
2022-11-03T12:16:35.338Z,13.35
2022-11-03T12:19:40.385Z,13.42
2022-11-03T12:22:13.078Z,13.47
2022-11-03T12:24:49.639Z,13.28
2022-11-03T12:27:20.917Z,12.98
2022-11-03T12:29:47.426Z,13.17
2022-11-03T12:32:32.420Z,13.14
2022-11-03T12:35:00.469Z,13.13
2022-11-03T12:37:26.985Z,13.16
2022-11-03T12:39:53.503Z,13.25
2022-11-03T12:42:20.949Z,13.29
2022-11-03T12:44:47.490Z,13.33
2022-11-03T12:47:13.933Z,13.30
2022-11-03T12:49:40.440Z,13.29
2022-11-03T12:52:08.622Z,13.29
2022-11-03T12:54:35.464Z,13.36
2022-11-03T12:57:02.367Z,13.33
2022-11-03T12:59:29.210Z,13.24
2022-11-03T13:01:55.892Z,13.20
2022-11-03T13:04:22.501Z,13.21
2022-11-03T13:06:49.059Z,13.26
2022-11-03T13:09:15.524Z,13.30
2022-11-03T13:12:00.749Z,13.31
2022-11-03T13:14:27.365Z,13.32
2022-11-03T13:16:53.878Z,13.32
2022-11-03T13:19:20.374Z,13.32
2022-11-03T13:21:46.837Z,13.26
2022-11-03T13:24:13.310Z,13.31
2022-11-03T13:26:39.785Z,13.29
2022-11-03T13:29:06.252Z,13.30
2022-11-03T13:31:32.750Z,13.13
2022-11-03T13:33:59.193Z,13.18
2022-11-03T13:36:25.702Z,13.24
2022-11-03T13:38:52.439Z,13.27
2022-11-03T13:41:18.887Z,13.23
2022-11-03T13:43:45.376Z,13.21
2022-11-03T13:46:12.772Z,13.28
2022-11-03T13:51:25.996Z,13.18
2022-11-03T13:59:25.874Z,13.12
2022-11-03T14:07:11.514Z,13.23
2022-11-03T14:09:37.993Z,13.20
2022-11-03T14:12:23.110Z,13.16
2022-11-03T14:14:49.549Z,13.18
2022-11-03T14:17:15.989Z,13.11
2022-11-03T14:19:47.350Z,13.15
2022-11-03T14:22:17.410Z,13.10
2022-11-03T14:24:44.339Z,13.02
2022-11-03T14:27:10.854Z,12.95
2022-11-03T14:29:37.302Z,12.86
2022-11-03T14:32:03.891Z,12.83
2022-11-03T14:34:30.543Z,12.83
2022-11-03T14:36:57.167Z,12.70
2022-11-03T14:39:23.726Z,12.71
2022-11-03T14:42:05.310Z,12.67
2022-11-03T14:44:38.864Z,12.58
2022-11-03T14:47:08.972Z,12.59
2022-11-03T14:49:36.543Z,12.53
2022-11-03T14:52:05.957Z,12.57
2022-11-03T14:54:32.688Z,12.57
2022-11-03T14:56:59.387Z,12.55
2022-11-03T14:59:26.351Z,12.52
2022-11-03T15:01:54.671Z,12.53
2022-11-03T15:04:22.382Z,12.52
2022-11-03T15:06:49.549Z,12.42
2022-11-03T15:09:16.558Z,12.44
2022-11-03T15:11:44.585Z,12.44
2022-11-03T15:14:12.261Z,12.33
2022-11-03T15:16:40.209Z,12.30
2022-11-03T15:19:08.099Z,12.36
2022-11-03T15:21:34.710Z,12.30
2022-11-03T15:26:47.927Z,12.10
2022-11-03T15:29:14.538Z,12.07
2022-11-03T15:31:46.199Z,12.08
2022-11-03T15:34:15.089Z,12.13
2022-11-03T15:36:41.563Z,12.18
2022-11-03T15:39:08.016Z,12.15
2022-11-03T15:41:34.480Z,12.03
2022-11-03T15:44:00.907Z,11.86
2022-11-03T15:46:27.393Z,11.82
2022-11-03T15:48:56.301Z,11.84
2022-11-03T15:51:23.031Z,11.90
2022-11-03T15:53:53.471Z,11.91
2022-11-03T15:56:23.293Z,11.88
2022-11-03T15:58:49.754Z,11.83
2022-11-03T16:01:16.400Z,11.73
2022-11-03T16:03:42.888Z,11.67
2022-11-03T16:06:09.336Z,11.56
2022-11-03T16:08:35.818Z,11.42
2022-11-03T16:11:02.285Z,11.37
2022-11-03T16:13:28.768Z,11.25
2022-11-03T16:15:55.213Z,11.13
2022-11-03T16:18:22.098Z,11.08
2022-11-03T16:20:48.549Z,11.04
2022-11-03T16:23:15.234Z,11.11
2022-11-03T16:25:41.656Z,11.10
2022-11-03T16:28:08.518Z,11.09
2022-11-03T16:30:35.357Z,11.04
2022-11-03T16:33:02.081Z,11.03
2022-11-03T16:35:29.565Z,11.04
2022-11-03T16:37:56.320Z,11.10
2022-11-03T16:40:23.588Z,11.00
2022-11-03T16:42:50.098Z,10.97
2022-11-03T16:45:23.628Z,11.05
2022-11-03T16:47:50.819Z,11.06
2022-11-03T16:50:18.469Z,11.03
2022-11-03T16:52:47.866Z,11.02
2022-11-03T16:55:15.897Z,10.85
2022-11-03T16:57:43.006Z,10.84
2022-11-03T17:00:16.427Z,10.89
2022-11-03T17:02:44.304Z,10.87
2022-11-03T17:05:13.029Z,10.90
2022-11-03T17:07:39.817Z,10.86
2022-11-03T17:10:07.941Z,10.80
2022-11-03T17:12:34.502Z,10.83
2022-11-03T17:15:00.951Z,10.92
2022-11-03T17:17:27.531Z,10.95
2022-11-03T17:19:54.043Z,10.82
2022-11-03T17:22:22.203Z,10.78
2022-11-03T17:24:49.519Z,10.81
2022-11-03T17:27:45.832Z,10.60
2022-11-03T17:30:31.070Z,10.55
2022-11-03T17:33:06.451Z,10.63
2022-11-03T17:35:39.796Z,10.66
2022-11-03T17:38:15.139Z,10.62
2022-11-03T17:40:45.174Z,10.66
2022-11-03T17:43:24.489Z,10.67
2022-11-03T17:45:51.401Z,10.66
2022-11-03T17:48:18.004Z,10.67
2022-11-03T17:50:50.415Z,10.69
2022-11-03T17:53:30.938Z,10.71
2022-11-03T17:58:47.370Z,10.76
2022-11-03T18:01:22.831Z,10.78
2022-11-03T18:03:49.389Z,10.76
2022-11-03T18:06:19.206Z,10.78
2022-11-03T18:08:48.266Z,10.82
2022-11-03T18:11:42.555Z,10.78
2022-11-03T18:14:09.189Z,10.68
2022-11-03T18:16:35.714Z,10.76
2022-11-03T18:19:02.265Z,10.80
2022-11-03T18:21:30.146Z,10.70
2022-11-03T18:23:56.779Z,10.60
2022-11-03T18:26:26.772Z,10.61
2022-11-03T18:28:54.062Z,10.63
2022-11-03T18:31:34.050Z,10.53
2022-11-03T18:34:06.447Z,10.50
2022-11-03T18:36:36.419Z,10.51
2022-11-03T18:39:04.479Z,10.52
2022-11-03T18:41:40.718Z,10.50
2022-11-03T18:44:19.353Z,10.49
2022-11-03T18:46:47.146Z,10.55
2022-11-03T18:49:14.985Z,10.53
2022-11-03T18:51:49.146Z,10.52
2022-11-03T18:54:21.518Z,10.52
2022-11-03T18:56:49.598Z,10.62
2022-11-03T18:59:25.562Z,10.58
2022-11-03T19:01:52.971Z,10.64
2022-11-03T19:04:19.876Z,10.66
2022-11-03T19:06:49.274Z,10.70
2022-11-03T19:09:21.073Z,10.69
2022-11-03T19:11:50.290Z,10.69
2022-11-03T19:14:28.274Z,10.65
2022-11-03T19:19:44.649Z,10.68
2022-11-03T19:22:17.328Z,10.67
2022-11-03T19:24:45.034Z,10.68
2022-11-03T19:27:19.907Z,10.68
2022-11-03T19:29:48.059Z,10.71
2022-11-03T19:32:24.865Z,10.69
2022-11-03T19:35:18.407Z,10.62
2022-11-03T19:37:48.141Z,10.66
2022-11-03T19:40:20.258Z,10.61
2022-11-03T19:42:48.598Z,10.63
2022-11-03T19:45:18.806Z,10.62
2022-11-03T19:48:22.532Z,10.60
2022-11-03T19:50:41.730Z,10.61
2022-11-03T19:53:08.241Z,10.63
2022-11-03T19:55:40.260Z,10.66
2022-11-03T19:58:23.458Z,10.72
2022-11-03T20:00:51.494Z,10.71
2022-11-03T20:03:18.188Z,10.75
2022-11-03T20:05:49.605Z,10.69
2022-11-03T20:08:21.981Z,10.69
2022-11-03T20:10:48.990Z,10.70
2022-11-03T20:13:21.762Z,10.65
2022-11-03T20:15:48.621Z,10.71
2022-11-03T20:18:15.853Z,10.69
2022-11-03T20:20:47.994Z,10.59
2022-11-03T20:23:25.564Z,10.65
2022-11-03T20:25:52.573Z,10.70
2022-11-03T20:28:24.838Z,10.68
2022-11-03T20:30:53.111Z,10.82
2022-11-03T20:33:22.906Z,10.79
2022-11-03T20:35:53.398Z,10.84
2022-11-03T20:38:21.080Z,10.87
2022-11-03T20:40:51.181Z,10.88
2022-11-03T20:43:39.606Z,10.82
2022-11-03T20:46:35.459Z,10.78
2022-11-03T20:49:01.952Z,10.90
2022-11-03T20:51:34.831Z,10.87
2022-11-03T20:54:15.490Z,10.92
2022-11-03T20:56:42.332Z,10.95
2022-11-03T20:59:17.420Z,10.97
2022-11-03T21:01:44.886Z,10.95
2022-11-03T21:04:15.389Z,10.85
2022-11-03T21:06:42.902Z,10.90
2022-11-03T21:09:17.722Z,10.87
2022-11-03T21:11:46.653Z,10.96
2022-11-03T21:14:18.290Z,11.00
2022-11-03T21:17:03.253Z,11.04
2022-11-03T21:20:01.143Z,11.04
2022-11-03T21:22:53.813Z,10.88
2022-11-03T21:25:22.330Z,10.87
2022-11-03T21:27:51.764Z,10.97
2022-11-03T21:30:19.137Z,11.01
2022-11-03T21:32:46.084Z,11.02
2022-11-03T21:35:17.826Z,10.98
2022-11-03T21:37:44.288Z,10.96
2022-11-03T21:40:11.860Z,10.98
2022-11-03T21:42:56.933Z,11.00
2022-11-03T21:45:23.464Z,10.97
2022-11-03T21:48:13.225Z,11.00
2022-11-03T21:50:40.620Z,11.00
2022-11-03T21:53:07.468Z,11.09
2022-11-03T21:55:34.350Z,11.07
2022-11-03T21:58:02.560Z,11.08
2022-11-03T22:00:29.307Z,11.15
2022-11-03T22:02:55.979Z,11.18
2022-11-03T22:05:22.718Z,11.13
2022-11-03T22:07:49.182Z,11.11
2022-11-03T22:10:15.785Z,11.04
2022-11-03T22:12:42.235Z,11.03
2022-11-03T22:15:27.905Z,11.05
2022-11-03T22:18:04.198Z,11.04
2022-11-03T22:20:49.397Z,11.09
2022-11-03T22:23:34.649Z,11.05
2022-11-03T22:26:20.089Z,10.97
2022-11-03T22:29:06.536Z,11.01
2022-11-03T22:31:42.003Z,10.88
2022-11-03T22:34:27.024Z,10.94
2022-11-03T22:36:53.533Z,10.91
2022-11-03T22:39:38.732Z,10.93
2022-11-03T22:42:23.868Z,10.91
2022-11-03T22:45:09.186Z,10.81
2022-11-03T22:47:35.632Z,10.78
2022-11-03T22:50:02.055Z,10.81
2022-11-03T22:52:28.501Z,10.83
2022-11-03T22:54:54.942Z,10.86
2022-11-03T22:57:21.538Z,10.92
2022-11-03T22:59:47.964Z,10.95
2022-11-03T23:02:14.470Z,10.95
2022-11-03T23:04:40.927Z,10.88
2022-11-03T23:07:07.365Z,10.81
2022-11-03T23:09:33.817Z,10.85
2022-11-03T23:12:00.266Z,10.86
2022-11-03T23:14:46.664Z,10.80
2022-11-03T23:17:13.155Z,10.65
2022-11-03T23:19:58.460Z,10.70
2022-11-03T23:22:24.905Z,10.72
2022-11-03T23:25:00.479Z,10.77
2022-11-03T23:27:27.926Z,10.76
2022-11-03T23:29:54.477Z,10.79
2022-11-03T23:32:20.924Z,10.77
2022-11-03T23:34:47.388Z,10.81
2022-11-03T23:37:14.202Z,10.75
2022-11-03T23:39:40.737Z,10.72
2022-11-03T23:42:07.442Z,10.75
2022-11-03T23:44:53.890Z,10.76
2022-11-03T23:47:39.095Z,10.77
2022-11-03T23:50:06.156Z,10.72
2022-11-03T23:52:32.585Z,10.77
2022-11-03T23:54:59.017Z,10.73
2022-11-03T23:57:44.045Z,10.69
